Decoded Metar for KVBT (BENTONVILLE in AR, USA) (IATA:VBT) | Meteo·Mobile Aviation Weather
aviador You're here:

KVBT Decoded Metar

BENTONVILLE in AR, USA
Report Time2018-10-20 06:23:00
UTC Time2018-10-20 06:50:52
Flight Rules lifr LIFR
Wind270° at 04 kt
W.Decomp.*RWY 18: 0.3 kt HW 4.0 kt RCW
W.Rank270° ranks 36
Current wind is below 270° avg. (6.8)
Visibility1609 m
Phenomena:Mist
Clouds:Overcast 003 Hf
Ceiling300 ft
Temp11°C (ISA -1)
Dew Point11°C (100% RH)
AAT9.9°C
QNH1022 hPa
Density Alt1,004 ft
Elevation1,296 ft
Report Wrong Elevation
Raw Report
KVBT 200623Z AUTO 27004KT 1SM BR OVC003 11/11 A3019 RMK AO2=

Extra information for KVBT:More info

Metar Taf Metar & Taf Last 4 Metars F.Rules Stats Wind Profile Meteogram Temp Stats Airport Information Weather charts Add Link Nearby VenuesMetar ALERT Operation Metar Decoded Social comments

AIRNAV info for KVBT